sensor_id;sensor_type;location;lat;lon;timestamp;temperature;humidity
69543;SHT31;56762;49.494;11.768;2023-01-04T00:01:04;1.13;90.07
69543;SHT31;56762;49.494;11.768;2023-01-04T00:03:32;1.13;88.91
69543;SHT31;56762;49.494;11.768;2023-01-04T00:06:03;1.12;89.65
69543;SHT31;56762;49.494;11.768;2023-01-04T00:08:32;1.13;90.11
69543;SHT31;56762;49.494;11.768;2023-01-04T00:11:01;1.13;90.16
69543;SHT31;56762;49.494;11.768;2023-01-04T00:13:29;1.12;90.48
69543;SHT31;56762;49.494;11.768;2023-01-04T00:15:57;1.18;90.35
69543;SHT31;56762;49.494;11.768;2023-01-04T00:18:33;1.20;90.02
69543;SHT31;56762;49.494;11.768;2023-01-04T00:21:11;1.16;89.97
69543;SHT31;56762;49.494;11.768;2023-01-04T00:23:41;1.19;89.90
69543;SHT31;56762;49.494;11.768;2023-01-04T00:26:11;1.12;90.30
69543;SHT31;56762;49.494;11.768;2023-01-04T00:28:40;1.12;90.14
69543;SHT31;56762;49.494;11.768;2023-01-04T00:31:13;1.13;90.14
69543;SHT31;56762;49.494;11.768;2023-01-04T00:33:41;1.12;89.91
69543;SHT31;56762;49.494;11.768;2023-01-04T00:36:12;1.12;89.93
69543;SHT31;56762;49.494;11.768;2023-01-04T00:38:41;1.13;89.06
69543;SHT31;56762;49.494;11.768;2023-01-04T00:41:10;1.12;89.01
69543;SHT31;56762;49.494;11.768;2023-01-04T00:43:59;1.10;88.23
69543;SHT31;56762;49.494;11.768;2023-01-04T00:46:31;1.12;88.36
69543;SHT31;56762;49.494;11.768;2023-01-04T00:48:59;1.03;88.20
69543;SHT31;56762;49.494;11.768;2023-01-04T00:51:30;1.03;88.47
69543;SHT31;56762;49.494;11.768;2023-01-04T00:53:59;1.02;88.68
69543;SHT31;56762;49.494;11.768;2023-01-04T00:56:31;1.02;88.92
69543;SHT31;56762;49.494;11.768;2023-01-04T00:59:01;1.00;88.89
69543;SHT31;56762;49.494;11.768;2023-01-04T01:01:31;0.99;89.58
69543;SHT31;56762;49.494;11.768;2023-01-04T01:04:01;1.02;89.80
69543;SHT31;56762;49.494;11.768;2023-01-04T01:06:32;1.08;89.24
69543;SHT31;56762;49.494;11.768;2023-01-04T01:09:00;1.05;89.29
69543;SHT31;56762;49.494;11.768;2023-01-04T01:11:29;1.05;88.76
69543;SHT31;56762;49.494;11.768;2023-01-04T01:13:57;1.03;88.77
69543;SHT31;56762;49.494;11.768;2023-01-04T01:16:25;1.03;88.72
69543;SHT31;56762;49.494;11.768;2023-01-04T01:19:13;1.06;89.44
69543;SHT31;56762;49.494;11.768;2023-01-04T01:21:43;1.13;89.63
69543;SHT31;56762;49.494;11.768;2023-01-04T01:24:15;1.18;88.95
69543;SHT31;56762;49.494;11.768;2023-01-04T01:26:44;1.22;89.04
69543;SHT31;56762;49.494;11.768;2023-01-04T01:29:13;1.28;89.51
69543;SHT31;56762;49.494;11.768;2023-01-04T01:31:40;1.33;89.43
69543;SHT31;56762;49.494;11.768;2023-01-04T01:34:09;1.35;89.24
69543;SHT31;56762;49.494;11.768;2023-01-04T01:36:36;1.36;89.19
69543;SHT31;56762;49.494;11.768;2023-01-04T01:39:05;1.39;89.21
69543;SHT31;56762;49.494;11.768;2023-01-04T01:41:34;1.43;89.29
69543;SHT31;56762;49.494;11.768;2023-01-04T01:44:04;1.46;89.13
69543;SHT31;56762;49.494;11.768;2023-01-04T01:46:36;1.53;88.49
69543;SHT31;56762;49.494;11.768;2023-01-04T01:49:12;1.63;89.28
69543;SHT31;56762;49.494;11.768;2023-01-04T01:51:41;1.66;88.93
69543;SHT31;56762;49.494;11.768;2023-01-04T01:54:13;1.61;88.61
69543;SHT31;56762;49.494;11.768;2023-01-04T01:56:48;1.68;89.02
69543;SHT31;56762;49.494;11.768;2023-01-04T01:59:18;1.73;89.34
69543;SHT31;56762;49.494;11.768;2023-01-04T02:01:47;1.82;89.37
69543;SHT31;56762;49.494;11.768;2023-01-04T02:04:16;1.88;89.68
69543;SHT31;56762;49.494;11.768;2023-01-04T02:06:47;1.94;89.37
69543;SHT31;56762;49.494;11.768;2023-01-04T02:09:18;1.98;89.06
69543;SHT31;56762;49.494;11.768;2023-01-04T02:11:46;2.02;89.46
69543;SHT31;56762;49.494;11.768;2023-01-04T02:14:14;2.07;89.78
69543;SHT31;56762;49.494;11.768;2023-01-04T02:17:05;2.15;89.89
69543;SHT31;56762;49.494;11.768;2023-01-04T02:20:01;2.17;90.31
69543;SHT31;56762;49.494;11.768;2023-01-04T02:22:48;2.26;89.65
69543;SHT31;56762;49.494;11.768;2023-01-04T02:25:39;2.28;89.96
69543;SHT31;56762;49.494;11.768;2023-01-04T02:28:19;2.28;90.01
69543;SHT31;56762;49.494;11.768;2023-01-04T02:34:00;2.35;90.68
69543;SHT31;56762;49.494;11.768;2023-01-04T02:36:34;2.36;90.23
69543;SHT31;56762;49.494;11.768;2023-01-04T02:39:17;2.40;90.37
69543;SHT31;56762;49.494;11.768;2023-01-04T02:41:51;2.38;90.14
69543;SHT31;56762;49.494;11.768;2023-01-04T02:44:25;2.42;90.13
69543;SHT31;56762;49.494;11.768;2023-01-04T02:47:13;2.40;89.77
69543;SHT31;56762;49.494;11.768;2023-01-04T02:49:42;2.40;90.10
69543;SHT31;56762;49.494;11.768;2023-01-04T02:52:31;2.43;90.75
69543;SHT31;56762;49.494;11.768;2023-01-04T02:55:04;2.43;90.44
69543;SHT31;56762;49.494;11.768;2023-01-04T02:57:42;2.50;90.56
69543;SHT31;56762;49.494;11.768;2023-01-04T03:00:25;2.57;90.24
69543;SHT31;56762;49.494;11.768;2023-01-04T03:03:17;2.59;90.19
69543;SHT31;56762;49.494;11.768;2023-01-04T03:06:14;2.64;90.05
69543;SHT31;56762;49.494;11.768;2023-01-04T03:08:57;2.60;89.81
69543;SHT31;56762;49.494;11.768;2023-01-04T03:11:33;2.61;90.69
69543;SHT31;56762;49.494;11.768;2023-01-04T03:14:23;2.61;90.42
69543;SHT31;56762;49.494;11.768;2023-01-04T03:16:59;2.66;91.19
69543;SHT31;56762;49.494;11.768;2023-01-04T03:19:30;2.66;90.42
69543;SHT31;56762;49.494;11.768;2023-01-04T03:22:26;2.70;90.19
69543;SHT31;56762;49.494;11.768;2023-01-04T03:25:13;2.73;91.06
69543;SHT31;56762;49.494;11.768;2023-01-04T03:27:57;2.73;90.53
69543;SHT31;56762;49.494;11.768;2023-01-04T03:30:49;2.73;90.49
69543;SHT31;56762;49.494;11.768;2023-01-04T03:33:35;2.76;90.60
69543;SHT31;56762;49.494;11.768;2023-01-04T03:36:38;2.75;89.98
69543;SHT31;56762;49.494;11.768;2023-01-04T03:39:14;2.76;90.04
69543;SHT31;56762;49.494;11.768;2023-01-04T03:42:04;2.75;90.41
69543;SHT31;56762;49.494;11.768;2023-01-04T03:44:56;2.81;90.48
69543;SHT31;56762;49.494;11.768;2023-01-04T03:47:49;2.81;90.21
69543;SHT31;56762;49.494;11.768;2023-01-04T03:50:38;2.80;90.12
69543;SHT31;56762;49.494;11.768;2023-01-04T03:53:09;2.80;90.39
69543;SHT31;56762;49.494;11.768;2023-01-04T03:55:39;2.83;90.07
69543;SHT31;56762;49.494;11.768;2023-01-04T03:58:08;2.83;90.20
69543;SHT31;56762;49.494;11.768;2023-01-04T04:00:36;2.81;89.98
69543;SHT31;56762;49.494;11.768;2023-01-04T04:03:05;2.83;89.89
69543;SHT31;56762;49.494;11.768;2023-01-04T04:05:36;2.87;90.10
69543;SHT31;56762;49.494;11.768;2023-01-04T04:08:23;2.86;90.04
69543;SHT31;56762;49.494;11.768;2023-01-04T04:10:51;2.91;90.09
69543;SHT31;56762;49.494;11.768;2023-01-04T04:13:18;2.94;90.00
69543;SHT31;56762;49.494;11.768;2023-01-04T04:15:47;2.94;89.92
69543;SHT31;56762;49.494;11.768;2023-01-04T04:18:14;3.03;90.65
69543;SHT31;56762;49.494;11.768;2023-01-04T04:20:42;3.03;90.00
69543;SHT31;56762;49.494;11.768;2023-01-04T04:23:11;3.10;90.27
69543;SHT31;56762;49.494;11.768;2023-01-04T04:25:40;3.15;90.68
69543;SHT31;56762;49.494;11.768;2023-01-04T04:28:08;3.18;90.48
69543;SHT31;56762;49.494;11.768;2023-01-04T04:30:36;3.24;90.62
69543;SHT31;56762;49.494;11.768;2023-01-04T04:33:06;3.17;89.24
69543;SHT31;56762;49.494;11.768;2023-01-04T04:35:33;3.21;90.11
69543;SHT31;56762;49.494;11.768;2023-01-04T04:38:02;3.21;89.68
69543;SHT31;56762;49.494;11.768;2023-01-04T04:40:30;3.22;89.53
69543;SHT31;56762;49.494;11.768;2023-01-04T04:43:18;3.24;89.21
69543;SHT31;56762;49.494;11.768;2023-01-04T04:45:46;3.25;89.41
69543;SHT31;56762;49.494;11.768;2023-01-04T04:48:14;3.27;89.69
69543;SHT31;56762;49.494;11.768;2023-01-04T04:50:42;3.27;89.47
69543;SHT31;56762;49.494;11.768;2023-01-04T04:53:10;3.24;89.22
69543;SHT31;56762;49.494;11.768;2023-01-04T04:55:37;3.27;89.47
69543;SHT31;56762;49.494;11.768;2023-01-04T04:58:05;3.25;89.69
69543;SHT31;56762;49.494;11.768;2023-01-04T05:00:34;3.32;89.92
69543;SHT31;56762;49.494;11.768;2023-01-04T05:03:02;3.31;89.54
69543;SHT31;56762;49.494;11.768;2023-01-04T05:05:30;3.31;89.86
69543;SHT31;56762;49.494;11.768;2023-01-04T05:07:58;3.32;89.90
69543;SHT31;56762;49.494;11.768;2023-01-04T05:10:26;3.32;89.69
69543;SHT31;56762;49.494;11.768;2023-01-04T05:12:53;3.39;89.95
69543;SHT31;56762;49.494;11.768;2023-01-04T05:15:28;3.45;89.99
69543;SHT31;56762;49.494;11.768;2023-01-04T05:18:01;3.49;90.14
69543;SHT31;56762;49.494;11.768;2023-01-04T05:20:29;3.51;90.05
69543;SHT31;56762;49.494;11.768;2023-01-04T05:22:57;3.49;89.66
69543;SHT31;56762;49.494;11.768;2023-01-04T05:25:25;3.51;89.77
69543;SHT31;56762;49.494;11.768;2023-01-04T05:27:53;3.56;89.95
69543;SHT31;56762;49.494;11.768;2023-01-04T05:30:21;3.54;89.83
69543;SHT31;56762;49.494;11.768;2023-01-04T05:33:08;3.63;90.24
69543;SHT31;56762;49.494;11.768;2023-01-04T05:35:35;3.63;89.54
69543;SHT31;56762;49.494;11.768;2023-01-04T05:38:04;3.63;89.50
69543;SHT31;56762;49.494;11.768;2023-01-04T05:40:31;3.62;89.57
69543;SHT31;56762;49.494;11.768;2023-01-04T05:42:59;3.68;90.37
69543;SHT31;56762;49.494;11.768;2023-01-04T05:45:27;3.73;89.86
69543;SHT31;56762;49.494;11.768;2023-01-04T05:47:55;3.75;90.06
69543;SHT31;56762;49.494;11.768;2023-01-04T05:50:24;3.80;89.96
69543;SHT31;56762;49.494;11.768;2023-01-04T05:52:52;3.82;89.37
69543;SHT31;56762;49.494;11.768;2023-01-04T05:55:19;3.80;89.27
69543;SHT31;56762;49.494;11.768;2023-01-04T05:57:47;3.79;89.50
69543;SHT31;56762;49.494;11.768;2023-01-04T06:00:15;3.73;89.11
69543;SHT31;56762;49.494;11.768;2023-01-04T06:02:43;3.70;89.31
69543;SHT31;56762;49.494;11.768;2023-01-04T06:05:11;3.69;89.16
69543;SHT31;56762;49.494;11.768;2023-01-04T06:07:41;3.66;89.45
69543;SHT31;56762;49.494;11.768;2023-01-04T06:10:11;3.76;89.45
69543;SHT31;56762;49.494;11.768;2023-01-04T06:12:39;3.75;88.99
69543;SHT31;56762;49.494;11.768;2023-01-04T06:15:08;3.66;88.95
69543;SHT31;56762;49.494;11.768;2023-01-04T06:17:37;3.61;89.29
69543;SHT31;56762;49.494;11.768;2023-01-04T06:20:07;3.59;89.66
69543;SHT31;56762;49.494;11.768;2023-01-04T06:22:35;3.61;89.73
69543;SHT31;56762;49.494;11.768;2023-01-04T06:25:06;3.63;89.83
69543;SHT31;56762;49.494;11.768;2023-01-04T06:27:34;3.62;89.89
69543;SHT31;56762;49.494;11.768;2023-01-04T06:30:02;3.65;89.84
69543;SHT31;56762;49.494;11.768;2023-01-04T06:32:30;3.68;89.64
69543;SHT31;56762;49.494;11.768;2023-01-04T06:34:58;3.76;89.32
69543;SHT31;56762;49.494;11.768;2023-01-04T06:37:26;3.73;89.35
69543;SHT31;56762;49.494;11.768;2023-01-04T06:39:54;3.78;89.69
69543;SHT31;56762;49.494;11.768;2023-01-04T06:42:24;3.79;89.30
69543;SHT31;56762;49.494;11.768;2023-01-04T06:45:10;3.76;89.40
69543;SHT31;56762;49.494;11.768;2023-01-04T06:47:38;3.83;89.37
69543;SHT31;56762;49.494;11.768;2023-01-04T06:50:07;3.80;89.12
69543;SHT31;56762;49.494;11.768;2023-01-04T06:52:35;3.85;89.17
69543;SHT31;56762;49.494;11.768;2023-01-04T06:55:03;3.79;89.25
69543;SHT31;56762;49.494;11.768;2023-01-04T06:57:33;3.83;89.61
69543;SHT31;56762;49.494;11.768;2023-01-04T07:00:01;3.90;89.42
69543;SHT31;56762;49.494;11.768;2023-01-04T07:02:29;3.89;89.41
69543;SHT31;56762;49.494;11.768;2023-01-04T07:04:57;3.92;89.64
69543;SHT31;56762;49.494;11.768;2023-01-04T07:07:25;3.90;89.45
69543;SHT31;56762;49.494;11.768;2023-01-04T07:09:53;3.93;89.41
69543;SHT31;56762;49.494;11.768;2023-01-04T07:12:21;3.94;89.80
69543;SHT31;56762;49.494;11.768;2023-01-04T07:14:50;3.99;89.44
69543;SHT31;56762;49.494;11.768;2023-01-04T07:17:18;4.03;89.01
69543;SHT31;56762;49.494;11.768;2023-01-04T07:19:53;4.00;89.62
69543;SHT31;56762;49.494;11.768;2023-01-04T07:22:21;4.07;89.20
69543;SHT31;56762;49.494;11.768;2023-01-04T07:24:49;4.07;89.31
69543;SHT31;56762;49.494;11.768;2023-01-04T07:27:17;4.14;89.61
69543;SHT31;56762;49.494;11.768;2023-01-04T07:29:45;4.20;89.48
69543;SHT31;56762;49.494;11.768;2023-01-04T07:32:15;4.25;89.35
69543;SHT31;56762;49.494;11.768;2023-01-04T07:34:42;4.25;89.25
69543;SHT31;56762;49.494;11.768;2023-01-04T07:37:10;4.37;89.94
69543;SHT31;56762;49.494;11.768;2023-01-04T07:39:38;4.42;89.17
69543;SHT31;56762;49.494;11.768;2023-01-04T07:42:07;4.47;89.14
69543;SHT31;56762;49.494;11.768;2023-01-04T07:44:35;4.52;89.03
69543;SHT31;56762;49.494;11.768;2023-01-04T07:47:02;4.58;88.71
69543;SHT31;56762;49.494;11.768;2023-01-04T07:49:32;4.60;88.70
69543;SHT31;56762;49.494;11.768;2023-01-04T07:51:59;4.85;92.89
69543;SHT31;56762;49.494;11.768;2023-01-04T07:54:27;5.16;88.58
69543;SHT31;56762;49.494;11.768;2023-01-04T07:56:55;5.16;86.83
69543;SHT31;56762;49.494;11.768;2023-01-04T07:59:23;5.09;86.61
69543;SHT31;56762;49.494;11.768;2023-01-04T08:01:51;5.05;87.12
69543;SHT31;56762;49.494;11.768;2023-01-04T08:04:21;4.96;87.01
69543;SHT31;56762;49.494;11.768;2023-01-04T08:06:57;4.92;87.55
69543;SHT31;56762;49.494;11.768;2023-01-04T08:09:25;4.85;88.00
69543;SHT31;56762;49.494;11.768;2023-01-04T08:11:53;4.86;88.27
69543;SHT31;56762;49.494;11.768;2023-01-04T08:14:21;4.86;88.49
69543;SHT31;56762;49.494;11.768;2023-01-04T08:16:49;4.88;88.71
69543;SHT31;56762;49.494;11.768;2023-01-04T08:19:19;4.93;88.56
69543;SHT31;56762;49.494;11.768;2023-01-04T08:21:47;4.95;88.49
69543;SHT31;56762;49.494;11.768;2023-01-04T08:24:18;5.06;88.60
69543;SHT31;56762;49.494;11.768;2023-01-04T08:26:46;5.12;88.38
69543;SHT31;56762;49.494;11.768;2023-01-04T08:29:15;5.20;88.45
69543;SHT31;56762;49.494;11.768;2023-01-04T08:31:42;5.24;88.24
69543;SHT31;56762;49.494;11.768;2023-01-04T08:34:10;5.29;88.32
69543;SHT31;56762;49.494;11.768;2023-01-04T08:36:45;5.33;88.22
69543;SHT31;56762;49.494;11.768;2023-01-04T08:39:13;5.33;88.47
69543;SHT31;56762;49.494;11.768;2023-01-04T08:41:42;5.37;88.09
69543;SHT31;56762;49.494;11.768;2023-01-04T08:44:39;5.39;88.56
69543;SHT31;56762;49.494;11.768;2023-01-04T08:47:07;5.39;87.72
69543;SHT31;56762;49.494;11.768;2023-01-04T08:49:35;5.46;88.37
69543;SHT31;56762;49.494;11.768;2023-01-04T08:52:03;5.53;88.04
69543;SHT31;56762;49.494;11.768;2023-01-04T08:54:31;5.63;88.04
69543;SHT31;56762;49.494;11.768;2023-01-04T08:57:00;5.70;87.80
69543;SHT31;56762;49.494;11.768;2023-01-04T08:59:28;5.77;87.73
69543;SHT31;56762;49.494;11.768;2023-01-04T09:01:55;5.81;87.60
69543;SHT31;56762;49.494;11.768;2023-01-04T09:04:30;5.85;87.88
69543;SHT31;56762;49.494;11.768;2023-01-04T09:06:58;5.97;87.11
69543;SHT31;56762;49.494;11.768;2023-01-04T09:09:26;6.02;87.00
69543;SHT31;56762;49.494;11.768;2023-01-04T09:11:55;6.05;87.31
69543;SHT31;56762;49.494;11.768;2023-01-04T09:14:26;6.12;86.88
69543;SHT31;56762;49.494;11.768;2023-01-04T09:16:54;6.15;87.04
69543;SHT31;56762;49.494;11.768;2023-01-04T09:19:21;6.21;87.36
69543;SHT31;56762;49.494;11.768;2023-01-04T09:21:49;6.19;87.37
69543;SHT31;56762;49.494;11.768;2023-01-04T09:24:17;6.19;87.66
69543;SHT31;56762;49.494;11.768;2023-01-04T09:26:45;6.22;87.30
69543;SHT31;56762;49.494;11.768;2023-01-04T09:29:13;6.23;87.73
69543;SHT31;56762;49.494;11.768;2023-01-04T09:31:43;6.23;87.51
69543;SHT31;56762;49.494;11.768;2023-01-04T09:34:11;6.25;87.09
69543;SHT31;56762;49.494;11.768;2023-01-04T09:36:42;6.29;87.58
69543;SHT31;56762;49.494;11.768;2023-01-04T09:39:10;6.29;87.47
69543;SHT31;56762;49.494;11.768;2023-01-04T09:41:52;6.32;87.47
69543;SHT31;56762;49.494;11.768;2023-01-04T09:44:29;6.33;87.49
69543;SHT31;56762;49.494;11.768;2023-01-04T09:47:25;6.33;87.06
69543;SHT31;56762;49.494;11.768;2023-01-04T09:49:58;6.39;87.06
69543;SHT31;56762;49.494;11.768;2023-01-04T09:52:39;6.40;87.38
69543;SHT31;56762;49.494;11.768;2023-01-04T09:55:16;6.40;87.28
69543;SHT31;56762;49.494;11.768;2023-01-04T09:58:17;6.42;87.18
69543;SHT31;56762;49.494;11.768;2023-01-04T10:00:49;6.44;86.87
69543;SHT31;56762;49.494;11.768;2023-01-04T10:03:23;6.46;87.37
69543;SHT31;56762;49.494;11.768;2023-01-04T10:05:54;6.49;87.76
69543;SHT31;56762;49.494;11.768;2023-01-04T10:08:22;6.50;87.31
69543;SHT31;56762;49.494;11.768;2023-01-04T10:11:03;6.54;87.21
69543;SHT31;56762;49.494;11.768;2023-01-04T10:13:46;6.56;86.91
69543;SHT31;56762;49.494;11.768;2023-01-04T10:16:21;6.60;86.77
69543;SHT31;56762;49.494;11.768;2023-01-04T10:19:22;6.60;87.26
69543;SHT31;56762;49.494;11.768;2023-01-04T10:22:16;6.66;87.11
69543;SHT31;56762;49.494;11.768;2023-01-04T10:24:54;6.72;86.97
69543;SHT31;56762;49.494;11.768;2023-01-04T10:27:31;6.80;86.51
69543;SHT31;56762;49.494;11.768;2023-01-04T10:30:28;6.85;85.76
69543;SHT31;56762;49.494;11.768;2023-01-04T10:33:05;6.91;85.61
69543;SHT31;56762;49.494;11.768;2023-01-04T10:35:38;7.00;85.24
69543;SHT31;56762;49.494;11.768;2023-01-04T10:38:13;7.07;85.35
69543;SHT31;56762;49.494;11.768;2023-01-04T10:40:44;7.09;85.24
69543;SHT31;56762;49.494;11.768;2023-01-04T10:43:20;7.11;85.45
69543;SHT31;56762;49.494;11.768;2023-01-04T10:45:55;7.15;85.22
69543;SHT31;56762;49.494;11.768;2023-01-04T10:48:31;7.15;85.18
69543;SHT31;56762;49.494;11.768;2023-01-04T10:51:06;7.18;85.06
69543;SHT31;56762;49.494;11.768;2023-01-04T10:53:40;7.25;84.08
69543;SHT31;56762;49.494;11.768;2023-01-04T10:56:15;7.41;82.59
69543;SHT31;56762;49.494;11.768;2023-01-04T10:58:56;7.52;82.21
69543;SHT31;56762;49.494;11.768;2023-01-04T11:01:28;7.58;82.93
69543;SHT31;56762;49.494;11.768;2023-01-04T11:04:01;7.61;83.00
69543;SHT31;56762;49.494;11.768;2023-01-04T11:06:38;7.70;83.14
69543;SHT31;56762;49.494;11.768;2023-01-04T11:09:11;7.73;82.91
69543;SHT31;56762;49.494;11.768;2023-01-04T11:11:50;7.73;82.75
69543;SHT31;56762;49.494;11.768;2023-01-04T11:14:22;7.70;82.98
69543;SHT31;56762;49.494;11.768;2023-01-04T11:17:02;7.75;82.46
69543;SHT31;56762;49.494;11.768;2023-01-04T11:19:32;7.75;82.80
69543;SHT31;56762;49.494;11.768;2023-01-04T11:22:05;7.75;81.58
69543;SHT31;56762;49.494;11.768;2023-01-04T11:24:34;7.73;81.88
69543;SHT31;56762;49.494;11.768;2023-01-04T11:27:13;7.73;81.56
69543;SHT31;56762;49.494;11.768;2023-01-04T11:29:57;7.69;81.87
69543;SHT31;56762;49.494;11.768;2023-01-04T11:32:34;7.72;82.49
69543;SHT31;56762;49.494;11.768;2023-01-04T11:35:05;7.66;82.85
69543;SHT31;56762;49.494;11.768;2023-01-04T11:37:35;7.66;82.45
69543;SHT31;56762;49.494;11.768;2023-01-04T11:40:24;7.70;81.36
69543;SHT31;56762;49.494;11.768;2023-01-04T11:43:13;7.73;82.00
69543;SHT31;56762;49.494;11.768;2023-01-04T11:45:57;7.72;82.05
69543;SHT31;56762;49.494;11.768;2023-01-04T11:48:34;7.72;82.20
69543;SHT31;56762;49.494;11.768;2023-01-04T11:51:14;7.69;82.28
69543;SHT31;56762;49.494;11.768;2023-01-04T11:53:56;7.76;81.75
69543;SHT31;56762;49.494;11.768;2023-01-04T11:56:25;7.72;81.53
69543;SHT31;56762;49.494;11.768;2023-01-04T11:59:05;7.75;81.82
69543;SHT31;56762;49.494;11.768;2023-01-04T12:01:38;7.73;82.15
69543;SHT31;56762;49.494;11.768;2023-01-04T12:04:11;7.72;82.38
69543;SHT31;56762;49.494;11.768;2023-01-04T12:06:47;7.70;81.66
69543;SHT31;56762;49.494;11.768;2023-01-04T12:09:18;7.70;82.11
69543;SHT31;56762;49.494;11.768;2023-01-04T12:11:50;7.73;82.02
69543;SHT31;56762;49.494;11.768;2023-01-04T12:14:25;7.75;82.29
69543;SHT31;56762;49.494;11.768;2023-01-04T12:16:59;7.75;82.12
69543;SHT31;56762;49.494;11.768;2023-01-04T12:19:29;7.80;82.20
69543;SHT31;56762;49.494;11.768;2023-01-04T12:21:58;7.73;82.05
69543;SHT31;56762;49.494;11.768;2023-01-04T12:24:32;7.73;82.17
69543;SHT31;56762;49.494;11.768;2023-01-04T12:27:01;7.67;82.32
69543;SHT31;56762;49.494;11.768;2023-01-04T12:29:40;7.69;82.80
69543;SHT31;56762;49.494;11.768;2023-01-04T12:32:38;7.85;81.98
69543;SHT31;56762;49.494;11.768;2023-01-04T12:39:04;7.89;82.47
69543;SHT31;56762;49.494;11.768;2023-01-04T12:45:10;7.94;82.18
69543;SHT31;56762;49.494;11.768;2023-01-04T12:47:42;7.93;82.74
69543;SHT31;56762;49.494;11.768;2023-01-04T12:50:27;7.96;82.55
69543;SHT31;56762;49.494;11.768;2023-01-04T12:52:59;7.94;82.48
69543;SHT31;56762;49.494;11.768;2023-01-04T12:55:52;8.03;82.03
69543;SHT31;56762;49.494;11.768;2023-01-04T13:02:18;8.04;82.04
69543;SHT31;56762;49.494;11.768;2023-01-04T13:04:47;8.14;82.24
69543;SHT31;56762;49.494;11.768;2023-01-04T13:07:21;8.13;82.30
69543;SHT31;56762;49.494;11.768;2023-01-04T13:09:53;8.08;81.91
69543;SHT31;56762;49.494;11.768;2023-01-04T13:12:45;8.11;81.95
69543;SHT31;56762;49.494;11.768;2023-01-04T13:15:23;8.23;82.15
69543;SHT31;56762;49.494;11.768;2023-01-04T13:17:57;8.28;82.07
69543;SHT31;56762;49.494;11.768;2023-01-04T13:20:26;8.34;81.86
69543;SHT31;56762;49.494;11.768;2023-01-04T13:22:57;8.47;80.56
69543;SHT31;56762;49.494;11.768;2023-01-04T13:25:25;8.49;80.49
69543;SHT31;56762;49.494;11.768;2023-01-04T13:27:59;8.47;80.34
69543;SHT31;56762;49.494;11.768;2023-01-04T13:30:30;8.48;80.57
69543;SHT31;56762;49.494;11.768;2023-01-04T13:33:07;8.42;81.04
69543;SHT31;56762;49.494;11.768;2023-01-04T13:35:59;8.47;81.07
69543;SHT31;56762;49.494;11.768;2023-01-04T13:38:29;8.66;80.14
69543;SHT31;56762;49.494;11.768;2023-01-04T13:40:58;8.65;80.75
69543;SHT31;56762;49.494;11.768;2023-01-04T13:43:52;8.71;80.16
69543;SHT31;56762;49.494;11.768;2023-01-04T13:46:24;8.62;80.76
69543;SHT31;56762;49.494;11.768;2023-01-04T13:48:59;8.62;80.77
69543;SHT31;56762;49.494;11.768;2023-01-04T13:51:29;8.59;80.63
69543;SHT31;56762;49.494;11.768;2023-01-04T13:54:04;8.59;81.12
69543;SHT31;56762;49.494;11.768;2023-01-04T13:56:33;8.62;81.17
69543;SHT31;56762;49.494;11.768;2023-01-04T13:59:01;8.66;80.47
69543;SHT31;56762;49.494;11.768;2023-01-04T14:01:31;8.61;81.00
69543;SHT31;56762;49.494;11.768;2023-01-04T14:04:03;8.61;81.18
69543;SHT31;56762;49.494;11.768;2023-01-04T14:06:33;8.59;81.02
69543;SHT31;56762;49.494;11.768;2023-01-04T14:09:13;8.58;81.11
69543;SHT31;56762;49.494;11.768;2023-01-04T14:11:43;8.56;81.40
69543;SHT31;56762;49.494;11.768;2023-01-04T14:14:38;8.59;81.28
69543;SHT31;56762;49.494;11.768;2023-01-04T14:17:18;8.54;81.31
69543;SHT31;56762;49.494;11.768;2023-01-04T14:19:51;8.64;81.04
69543;SHT31;56762;49.494;11.768;2023-01-04T14:22:34;8.56;81.54
69543;SHT31;56762;49.494;11.768;2023-01-04T14:25:35;8.56;81.51
69543;SHT31;56762;49.494;11.768;2023-01-04T14:28:17;8.62;81.35
69543;SHT31;56762;49.494;11.768;2023-01-04T14:30:48;8.61;81.38
69543;SHT31;56762;49.494;11.768;2023-01-04T14:33:19;8.69;81.27
69543;SHT31;56762;49.494;11.768;2023-01-04T14:36:01;8.61;81.56
69543;SHT31;56762;49.494;11.768;2023-01-04T14:38:34;8.64;81.35
69543;SHT31;56762;49.494;11.768;2023-01-04T14:41:11;8.59;81.55
69543;SHT31;56762;49.494;11.768;2023-01-04T14:43:46;8.66;81.33
69543;SHT31;56762;49.494;11.768;2023-01-04T14:46:15;8.65;81.53
69543;SHT31;56762;49.494;11.768;2023-01-04T14:48:43;8.61;81.43
69543;SHT31;56762;49.494;11.768;2023-01-04T14:51:15;8.56;81.87
69543;SHT31;56762;49.494;11.768;2023-01-04T14:53:44;8.56;81.72
69543;SHT31;56762;49.494;11.768;2023-01-04T14:56:13;8.59;81.79
69543;SHT31;56762;49.494;11.768;2023-01-04T14:58:41;8.68;81.50
69543;SHT31;56762;49.494;11.768;2023-01-04T15:01:10;8.61;81.76
69543;SHT31;56762;49.494;11.768;2023-01-04T15:03:39;8.64;81.52
69543;SHT31;56762;49.494;11.768;2023-01-04T15:06:07;8.61;81.91
69543;SHT31;56762;49.494;11.768;2023-01-04T15:08:36;8.59;81.68
69543;SHT31;56762;49.494;11.768;2023-01-04T15:11:04;8.65;81.41
69543;SHT31;56762;49.494;11.768;2023-01-04T15:13:33;8.71;81.53
69543;SHT31;56762;49.494;11.768;2023-01-04T15:16:06;8.64;81.69
69543;SHT31;56762;49.494;11.768;2023-01-04T15:18:36;8.61;81.60
69543;SHT31;56762;49.494;11.768;2023-01-04T15:21:04;8.61;82.05
69543;SHT31;56762;49.494;11.768;2023-01-04T15:23:32;8.55;82.52
69543;SHT31;56762;49.494;11.768;2023-01-04T15:26:04;8.54;82.53
69543;SHT31;56762;49.494;11.768;2023-01-04T15:28:33;8.49;82.91
69543;SHT31;56762;49.494;11.768;2023-01-04T15:31:05;8.56;82.75
69543;SHT31;56762;49.494;11.768;2023-01-04T15:33:33;8.55;83.50
69543;SHT31;56762;49.494;11.768;2023-01-04T15:36:03;8.52;83.96
69543;SHT31;56762;49.494;11.768;2023-01-04T15:38:31;8.51;84.40
69543;SHT31;56762;49.494;11.768;2023-01-04T15:41:04;8.49;84.97
69543;SHT31;56762;49.494;11.768;2023-01-04T15:43:33;8.47;85.34
69543;SHT31;56762;49.494;11.768;2023-01-04T15:46:03;8.37;85.56
69543;SHT31;56762;49.494;11.768;2023-01-04T15:48:33;8.38;86.02
69543;SHT31;56762;49.494;11.768;2023-01-04T15:51:02;8.34;86.27
69543;SHT31;56762;49.494;11.768;2023-01-04T15:53:31;8.31;86.79
69543;SHT31;56762;49.494;11.768;2023-01-04T15:56:05;8.27;87.25
69543;SHT31;56762;49.494;11.768;2023-01-04T15:58:33;8.23;88.03
69543;SHT31;56762;49.494;11.768;2023-01-04T16:01:06;8.24;87.59
69543;SHT31;56762;49.494;11.768;2023-01-04T16:03:35;8.20;88.07
69543;SHT31;56762;49.494;11.768;2023-01-04T16:06:04;8.23;88.32
69543;SHT31;56762;49.494;11.768;2023-01-04T16:08:32;8.30;88.03
69543;SHT31;56762;49.494;11.768;2023-01-04T16:11:08;8.20;88.68
69543;SHT31;56762;49.494;11.768;2023-01-04T16:13:37;8.20;88.93
69543;SHT31;56762;49.494;11.768;2023-01-04T16:16:05;8.27;88.98
69543;SHT31;56762;49.494;11.768;2023-01-04T16:18:33;8.13;89.85
69543;SHT31;56762;49.494;11.768;2023-01-04T16:21:04;8.07;90.35